sensor_id;sensor_type;location;lat;lon;timestamp;P1;durP1;ratioP1;P2;durP2;ratioP2
68010;SDS011;54794;48.348;7.878;2023-09-19T00:07:05;0.20;;;0.10;;
68010;SDS011;54794;48.348;7.878;2023-09-19T00:09:47;0.38;;;0.20;;
68010;SDS011;54794;48.348;7.878;2023-09-19T00:15:53;1.02;;;0.10;;
68010;SDS011;54794;48.348;7.878;2023-09-19T00:18:48;0.35;;;0.13;;
68010;SDS011;54794;48.348;7.878;2023-09-19T00:21:57;0.47;;;0.20;;
68010;SDS011;54794;48.348;7.878;2023-09-19T00:24:33;0.80;;;0.30;;
68010;SDS011;54794;48.348;7.878;2023-09-19T00:27:25;0.52;;;0.20;;
68010;SDS011;54794;48.348;7.878;2023-09-19T00:30:46;1.08;;;0.17;;
68010;SDS011;54794;48.348;7.878;2023-09-19T00:33:44;0.50;;;0.20;;
68010;SDS011;54794;48.348;7.878;2023-09-19T00:36:50;0.30;;;0.13;;
68010;SDS011;54794;48.348;7.878;2023-09-19T00:39:33;1.45;;;0.30;;
68010;SDS011;54794;48.348;7.878;2023-09-19T00:42:23;0.73;;;0.20;;
68010;SDS011;54794;48.348;7.878;2023-09-19T00:45:19;0.57;;;0.20;;
68010;SDS011;54794;48.348;7.878;2023-09-19T00:48:04;0.20;;;0.10;;
68010;SDS011;54794;48.348;7.878;2023-09-19T00:50:52;1.95;;;0.20;;
68010;SDS011;54794;48.348;7.878;2023-09-19T00:53:39;0.25;;;0.17;;
68010;SDS011;54794;48.348;7.878;2023-09-19T00:56:57;0.95;;;0.20;;
68010;SDS011;54794;48.348;7.878;2023-09-19T00:59:56;0.38;;;0.20;;
68010;SDS011;54794;48.348;7.878;2023-09-19T01:02:55;0.52;;;0.30;;
68010;SDS011;54794;48.348;7.878;2023-09-19T01:05:31;0.10;;;0.10;;
68010;SDS011;54794;48.348;7.878;2023-09-19T01:08:11;1.77;;;0.10;;
68010;SDS011;54794;48.348;7.878;2023-09-19T01:11:16;0.30;;;0.10;;
68010;SDS011;54794;48.348;7.878;2023-09-19T01:17:46;0.50;;;0.30;;
68010;SDS011;54794;48.348;7.878;2023-09-19T01:23:35;1.08;;;0.30;;
68010;SDS011;54794;48.348;7.878;2023-09-19T01:33:06;1.08;;;0.28;;
68010;SDS011;54794;48.348;7.878;2023-09-19T01:35:54;1.10;;;0.25;;
68010;SDS011;54794;48.348;7.878;2023-09-19T01:38:54;2.47;;;0.30;;
68010;SDS011;54794;48.348;7.878;2023-09-19T01:45:21;1.48;;;0.20;;
68010;SDS011;54794;48.348;7.878;2023-09-19T01:54:36;0.47;;;0.32;;
68010;SDS011;54794;48.348;7.878;2023-09-19T02:01:23;0.60;;;0.20;;
68010;SDS011;54794;48.348;7.878;2023-09-19T02:04:09;0.20;;;0.20;;
68010;SDS011;54794;48.348;7.878;2023-09-19T02:06:43;0.47;;;0.22;;
68010;SDS011;54794;48.348;7.878;2023-09-19T02:09:39;0.47;;;0.28;;
68010;SDS011;54794;48.348;7.878;2023-09-19T02:12:32;1.13;;;0.22;;
68010;SDS011;54794;48.348;7.878;2023-09-19T02:15:41;0.75;;;0.20;;
68010;SDS011;54794;48.348;7.878;2023-09-19T02:18:38;0.38;;;0.20;;
68010;SDS011;54794;48.348;7.878;2023-09-19T02:21:18;0.10;;;0.10;;
68010;SDS011;54794;48.348;7.878;2023-09-19T02:24:18;0.10;;;0.10;;
68010;SDS011;54794;48.348;7.878;2023-09-19T02:27:31;0.20;;;0.20;;
68010;SDS011;54794;48.348;7.878;2023-09-19T02:30:45;0.60;;;0.15;;
68010;SDS011;54794;48.348;7.878;2023-09-19T02:33:44;0.25;;;0.17;;
68010;SDS011;54794;48.348;7.878;2023-09-19T02:36:17;0.60;;;0.30;;
68010;SDS011;54794;48.348;7.878;2023-09-19T02:39:14;2.13;;;0.20;;
68010;SDS011;54794;48.348;7.878;2023-09-19T02:41:58;0.20;;;0.10;;
68010;SDS011;54794;48.348;7.878;2023-09-19T02:44:41;0.28;;;0.17;;
68010;SDS011;54794;48.348;7.878;2023-09-19T02:47:32;0.60;;;0.40;;
68010;SDS011;54794;48.348;7.878;2023-09-19T02:50:44;0.10;;;0.10;;
68010;SDS011;54794;48.348;7.878;2023-09-19T02:53:32;0.17;;;0.10;;
68010;SDS011;54794;48.348;7.878;2023-09-19T02:56:31;0.60;;;0.20;;
68010;SDS011;54794;48.348;7.878;2023-09-19T02:59:21;0.30;;;0.10;;
68010;SDS011;54794;48.348;7.878;2023-09-19T03:01:58;0.20;;;0.20;;
68010;SDS011;54794;48.348;7.878;2023-09-19T03:04:54;1.50;;;0.20;;
68010;SDS011;54794;48.348;7.878;2023-09-19T03:07:32;0.38;;;0.10;;
68010;SDS011;54794;48.348;7.878;2023-09-19T03:10:45;0.98;;;0.30;;
68010;SDS011;54794;48.348;7.878;2023-09-19T03:13:33;0.52;;;0.20;;
68010;SDS011;54794;48.348;7.878;2023-09-19T03:19:04;0.30;;;0.10;;
68010;SDS011;54794;48.348;7.878;2023-09-19T03:21:48;0.55;;;0.20;;
68010;SDS011;54794;48.348;7.878;2023-09-19T03:24:33;0.30;;;0.20;;
68010;SDS011;54794;48.348;7.878;2023-09-19T03:27:11;0.55;;;0.28;;
68010;SDS011;54794;48.348;7.878;2023-09-19T03:30:08;1.20;;;0.22;;
68010;SDS011;54794;48.348;7.878;2023-09-19T03:33:14;0.25;;;0.10;;
68010;SDS011;54794;48.348;7.878;2023-09-19T03:36:23;0.40;;;0.20;;
68010;SDS011;54794;48.348;7.878;2023-09-19T03:39:53;0.40;;;0.17;;
68010;SDS011;54794;48.348;7.878;2023-09-19T03:42:47;0.95;;;0.30;;
68010;SDS011;54794;48.348;7.878;2023-09-19T03:45:53;0.28;;;0.17;;
68010;SDS011;54794;48.348;7.878;2023-09-19T03:49:19;1.02;;;0.20;;
68010;SDS011;54794;48.348;7.878;2023-09-19T03:55:49;0.30;;;0.20;;
68010;SDS011;54794;48.348;7.878;2023-09-19T03:58:40;0.25;;;0.20;;
68010;SDS011;54794;48.348;7.878;2023-09-19T04:01:39;0.30;;;0.20;;
68010;SDS011;54794;48.348;7.878;2023-09-19T04:08:18;0.65;;;0.20;;
68010;SDS011;54794;48.348;7.878;2023-09-19T04:11:19;0.60;;;0.20;;
68010;SDS011;54794;48.348;7.878;2023-09-19T04:14:16;0.32;;;0.20;;
68010;SDS011;54794;48.348;7.878;2023-09-19T04:17:34;0.10;;;0.10;;
68010;SDS011;54794;48.348;7.878;2023-09-19T04:20:27;0.57;;;0.30;;
68010;SDS011;54794;48.348;7.878;2023-09-19T04:23:40;0.55;;;0.20;;
68010;SDS011;54794;48.348;7.878;2023-09-19T04:26:38;0.20;;;0.17;;
68010;SDS011;54794;48.348;7.878;2023-09-19T04:29:33;1.02;;;0.20;;
68010;SDS011;54794;48.348;7.878;2023-09-19T04:32:15;0.30;;;0.10;;
68010;SDS011;54794;48.348;7.878;2023-09-19T04:35:03;0.28;;;0.10;;
68010;SDS011;54794;48.348;7.878;2023-09-19T04:38:02;0.82;;;0.30;;
68010;SDS011;54794;48.348;7.878;2023-09-19T04:41:22;0.57;;;0.20;;
68010;SDS011;54794;48.348;7.878;2023-09-19T04:44:44;0.10;;;0.10;;
68010;SDS011;54794;48.348;7.878;2023-09-19T04:47:53;0.73;;;0.30;;
68010;SDS011;54794;48.348;7.878;2023-09-19T04:53:53;0.32;;;0.22;;
68010;SDS011;54794;48.348;7.878;2023-09-19T04:56:48;1.08;;;0.40;;
68010;SDS011;54794;48.348;7.878;2023-09-19T04:59:40;2.10;;;0.30;;
68010;SDS011;54794;48.348;7.878;2023-09-19T05:03:18;0.22;;;0.10;;
68010;SDS011;54794;48.348;7.878;2023-09-19T05:09:40;0.13;;;0.10;;
68010;SDS011;54794;48.348;7.878;2023-09-19T05:16:28;0.10;;;0.10;;
68010;SDS011;54794;48.348;7.878;2023-09-19T05:19:58;0.68;;;0.20;;
68010;SDS011;54794;48.348;7.878;2023-09-19T05:23:21;0.30;;;0.20;;
68010;SDS011;54794;48.348;7.878;2023-09-19T05:26:25;1.90;;;0.20;;
68010;SDS011;54794;48.348;7.878;2023-09-19T05:29:01;0.40;;;0.25;;
68010;SDS011;54794;48.348;7.878;2023-09-19T05:32:11;0.52;;;0.10;;
68010;SDS011;54794;48.348;7.878;2023-09-19T05:35:51;0.30;;;0.20;;
68010;SDS011;54794;48.348;7.878;2023-09-19T05:43:30;0.43;;;0.13;;
68010;SDS011;54794;48.348;7.878;2023-09-19T05:47:06;0.17;;;0.17;;
68010;SDS011;54794;48.348;7.878;2023-09-19T05:50:34;0.20;;;0.10;;
68010;SDS011;54794;48.348;7.878;2023-09-19T05:57:07;0.52;;;0.10;;
68010;SDS011;54794;48.348;7.878;2023-09-19T06:03:37;0.40;;;0.20;;
68010;SDS011;54794;48.348;7.878;2023-09-19T06:06:51;0.90;;;0.25;;
68010;SDS011;54794;48.348;7.878;2023-09-19T06:10:18;0.20;;;0.20;;
68010;SDS011;54794;48.348;7.878;2023-09-19T06:14:26;0.22;;;0.10;;
68010;SDS011;54794;48.348;7.878;2023-09-19T06:28:33;0.50;;;0.30;;
68010;SDS011;54794;48.348;7.878;2023-09-19T06:32:13;0.28;;;0.20;;
68010;SDS011;54794;48.348;7.878;2023-09-19T06:39:53;0.68;;;0.20;;
68010;SDS011;54794;48.348;7.878;2023-09-19T06:43:18;1.50;;;0.30;;
68010;SDS011;54794;48.348;7.878;2023-09-19T06:46:49;1.05;;;0.25;;
68010;SDS011;54794;48.348;7.878;2023-09-19T06:50:09;0.45;;;0.20;;
68010;SDS011;54794;48.348;7.878;2023-09-19T07:01:29;0.50;;;0.20;;
68010;SDS011;54794;48.348;7.878;2023-09-19T07:06:21;0.15;;;0.10;;
68010;SDS011;54794;48.348;7.878;2023-09-19T07:20:56;0.50;;;0.20;;
68010;SDS011;54794;48.348;7.878;2023-09-19T07:31:02;1.30;;;0.20;;
68010;SDS011;54794;48.348;7.878;2023-09-19T07:34:58;0.28;;;0.20;;
68010;SDS011;54794;48.348;7.878;2023-09-19T07:41:24;0.35;;;0.28;;
68010;SDS011;54794;48.348;7.878;2023-09-19T07:45:12;0.43;;;0.20;;
68010;SDS011;54794;48.348;7.878;2023-09-19T07:47:57;0.85;;;0.20;;
68010;SDS011;54794;48.348;7.878;2023-09-19T07:51:11;0.63;;;0.10;;
68010;SDS011;54794;48.348;7.878;2023-09-19T07:57:40;0.70;;;0.20;;
68010;SDS011;54794;48.348;7.878;2023-09-19T08:01:19;1.10;;;0.20;;
68010;SDS011;54794;48.348;7.878;2023-09-19T08:04:25;0.55;;;0.22;;
68010;SDS011;54794;48.348;7.878;2023-09-19T08:07:26;0.30;;;0.20;;
68010;SDS011;54794;48.348;7.878;2023-09-19T08:10:55;0.57;;;0.17;;
68010;SDS011;54794;48.348;7.878;2023-09-19T08:13:56;0.35;;;0.10;;
68010;SDS011;54794;48.348;7.878;2023-09-19T08:24:25;0.77;;;0.20;;
68010;SDS011;54794;48.348;7.878;2023-09-19T08:27:35;0.40;;;0.30;;
68010;SDS011;54794;48.348;7.878;2023-09-19T08:34:36;0.32;;;0.20;;
68010;SDS011;54794;48.348;7.878;2023-09-19T08:37:37;0.50;;;0.30;;
68010;SDS011;54794;48.348;7.878;2023-09-19T08:41:16;0.43;;;0.30;;
68010;SDS011;54794;48.348;7.878;2023-09-19T08:55:32;0.52;;;0.30;;
68010;SDS011;54794;48.348;7.878;2023-09-19T09:01:45;0.70;;;0.22;;
68010;SDS011;54794;48.348;7.878;2023-09-19T09:05:13;0.57;;;0.40;;
68010;SDS011;54794;48.348;7.878;2023-09-19T09:08:41;0.80;;;0.30;;
68010;SDS011;54794;48.348;7.878;2023-09-19T09:12:29;2.55;;;0.30;;
68010;SDS011;54794;48.348;7.878;2023-09-19T09:16:14;1.42;;;0.50;;
68010;SDS011;54794;48.348;7.878;2023-09-19T09:20:12;0.75;;;0.35;;
68010;SDS011;54794;48.348;7.878;2023-09-19T09:34:40;0.45;;;0.30;;
68010;SDS011;54794;48.348;7.878;2023-09-19T09:53:25;0.65;;;0.30;;
68010;SDS011;54794;48.348;7.878;2023-09-19T10:00:09;0.22;;;0.20;;
68010;SDS011;54794;48.348;7.878;2023-09-19T10:03:37;0.40;;;0.30;;
68010;SDS011;54794;48.348;7.878;2023-09-19T10:07:24;0.95;;;0.38;;
68010;SDS011;54794;48.348;7.878;2023-09-19T10:10:59;0.52;;;0.30;;
68010;SDS011;54794;48.348;7.878;2023-09-19T10:18:33;0.55;;;0.32;;
68010;SDS011;54794;48.348;7.878;2023-09-19T10:25:53;0.50;;;0.30;;
68010;SDS011;54794;48.348;7.878;2023-09-19T10:29:23;0.55;;;0.30;;
68010;SDS011;54794;48.348;7.878;2023-09-19T10:32:08;0.65;;;0.40;;
68010;SDS011;54794;48.348;7.878;2023-09-19T10:35:14;0.70;;;0.38;;
68010;SDS011;54794;48.348;7.878;2023-09-19T10:38:26;0.82;;;0.40;;
68010;SDS011;54794;48.348;7.878;2023-09-19T10:41:24;0.95;;;0.30;;
68010;SDS011;54794;48.348;7.878;2023-09-19T10:44:30;0.60;;;0.38;;
68010;SDS011;54794;48.348;7.878;2023-09-19T10:47:23;1.02;;;0.30;;
68010;SDS011;54794;48.348;7.878;2023-09-19T10:50:19;1.08;;;0.40;;
68010;SDS011;54794;48.348;7.878;2023-09-19T10:53:27;0.45;;;0.20;;
68010;SDS011;54794;48.348;7.878;2023-09-19T10:56:47;0.65;;;0.30;;
68010;SDS011;54794;48.348;7.878;2023-09-19T11:03:19;0.90;;;0.30;;
68010;SDS011;54794;48.348;7.878;2023-09-19T11:06:15;1.02;;;0.40;;
68010;SDS011;54794;48.348;7.878;2023-09-19T11:09:42;3.72;;;0.50;;
68010;SDS011;54794;48.348;7.878;2023-09-19T11:13:23;0.50;;;0.38;;
68010;SDS011;54794;48.348;7.878;2023-09-19T11:16:37;2.10;;;0.32;;
68010;SDS011;54794;48.348;7.878;2023-09-19T11:20:25;0.57;;;0.22;;
68010;SDS011;54794;48.348;7.878;2023-09-19T11:24:26;0.30;;;0.30;;
68010;SDS011;54794;48.348;7.878;2023-09-19T11:27:13;0.50;;;0.20;;
68010;SDS011;54794;48.348;7.878;2023-09-19T11:31:41;0.30;;;0.20;;
68010;SDS011;54794;48.348;7.878;2023-09-19T11:34:44;0.20;;;0.10;;
68010;SDS011;54794;48.348;7.878;2023-09-19T11:38:14;0.95;;;0.35;;
68010;SDS011;54794;48.348;7.878;2023-09-19T11:41:40;0.70;;;0.30;;
68010;SDS011;54794;48.348;7.878;2023-09-19T11:44:44;0.85;;;0.20;;
68010;SDS011;54794;48.348;7.878;2023-09-19T11:48:23;0.38;;;0.25;;
68010;SDS011;54794;48.348;7.878;2023-09-19T11:51:26;0.50;;;0.20;;
68010;SDS011;54794;48.348;7.878;2023-09-19T11:54:59;0.50;;;0.10;;
68010;SDS011;54794;48.348;7.878;2023-09-19T11:58:21;0.55;;;0.28;;
68010;SDS011;54794;48.348;7.878;2023-09-19T12:01:21;0.63;;;0.30;;
68010;SDS011;54794;48.348;7.878;2023-09-19T12:04:44;0.40;;;0.20;;
68010;SDS011;54794;48.348;7.878;2023-09-19T12:07:42;0.75;;;0.40;;
68010;SDS011;54794;48.348;7.878;2023-09-19T12:14:21;0.25;;;0.17;;
68010;SDS011;54794;48.348;7.878;2023-09-19T12:17:17;0.85;;;0.25;;
68010;SDS011;54794;48.348;7.878;2023-09-19T12:23:56;0.20;;;0.20;;
68010;SDS011;54794;48.348;7.878;2023-09-19T12:27:15;0.50;;;0.20;;
68010;SDS011;54794;48.348;7.878;2023-09-19T12:30:53;0.20;;;0.13;;
68010;SDS011;54794;48.348;7.878;2023-09-19T12:34:09;0.50;;;0.30;;
68010;SDS011;54794;48.348;7.878;2023-09-19T12:37:58;0.20;;;0.17;;
68010;SDS011;54794;48.348;7.878;2023-09-19T12:41:21;0.22;;;0.20;;
68010;SDS011;54794;48.348;7.878;2023-09-19T12:45:00;0.40;;;0.20;;
68010;SDS011;54794;48.348;7.878;2023-09-19T12:48:23;0.30;;;0.20;;
68010;SDS011;54794;48.348;7.878;2023-09-19T12:51:41;0.60;;;0.20;;
68010;SDS011;54794;48.348;7.878;2023-09-19T12:54:47;0.45;;;0.20;;
68010;SDS011;54794;48.348;7.878;2023-09-19T12:58:36;0.32;;;0.15;;
68010;SDS011;54794;48.348;7.878;2023-09-19T13:01:52;0.10;;;0.10;;
68010;SDS011;54794;48.348;7.878;2023-09-19T13:10:02;0.43;;;0.20;;
68010;SDS011;54794;48.348;7.878;2023-09-19T13:13:11;0.22;;;0.10;;
68010;SDS011;54794;48.348;7.878;2023-09-19T13:17:06;0.28;;;0.20;;
68010;SDS011;54794;48.348;7.878;2023-09-19T13:20:00;0.40;;;0.20;;
68010;SDS011;54794;48.348;7.878;2023-09-19T13:27:06;0.20;;;0.13;;
68010;SDS011;54794;48.348;7.878;2023-09-19T13:33:47;0.08;;;0.08;;
68010;SDS011;54794;48.348;7.878;2023-09-19T13:39:34;0.30;;;0.10;;
68010;SDS011;54794;48.348;7.878;2023-09-19T13:42:59;0.10;;;0.10;;
68010;SDS011;54794;48.348;7.878;2023-09-19T13:49:33;0.40;;;0.20;;
68010;SDS011;54794;48.348;7.878;2023-09-19T13:56:17;0.45;;;0.22;;
68010;SDS011;54794;48.348;7.878;2023-09-19T13:59:14;0.30;;;0.20;;
68010;SDS011;54794;48.348;7.878;2023-09-19T14:02:14;0.35;;;0.13;;
68010;SDS011;54794;48.348;7.878;2023-09-19T14:05:10;0.10;;;0.10;;
68010;SDS011;54794;48.348;7.878;2023-09-19T14:08:07;0.30;;;0.20;;
68010;SDS011;54794;48.348;7.878;2023-09-19T14:11:19;0.20;;;0.15;;
68010;SDS011;54794;48.348;7.878;2023-09-19T14:14:10;0.27;;;0.20;;
68010;SDS011;54794;48.348;7.878;2023-09-19T14:17:23;0.50;;;0.20;;
68010;SDS011;54794;48.348;7.878;2023-09-19T14:20:29;0.30;;;0.20;;
68010;SDS011;54794;48.348;7.878;2023-09-19T14:23:20;0.75;;;0.10;;
68010;SDS011;54794;48.348;7.878;2023-09-19T14:26:24;0.50;;;0.10;;
68010;SDS011;54794;48.348;7.878;2023-09-19T14:33:19;0.30;;;0.20;;
68010;SDS011;54794;48.348;7.878;2023-09-19T14:36:18;0.35;;;0.20;;
68010;SDS011;54794;48.348;7.878;2023-09-19T14:39:16;1.67;;;0.20;;
68010;SDS011;54794;48.348;7.878;2023-09-19T14:42:13;0.10;;;0.10;;
68010;SDS011;54794;48.348;7.878;2023-09-19T14:44:54;0.10;;;0.10;;
68010;SDS011;54794;48.348;7.878;2023-09-19T14:47:32;0.30;;;0.10;;
68010;SDS011;54794;48.348;7.878;2023-09-19T14:50:47;1.13;;;0.20;;
68010;SDS011;54794;48.348;7.878;2023-09-19T14:54:03;0.45;;;0.20;;
68010;SDS011;54794;48.348;7.878;2023-09-19T14:56:53;0.35;;;0.20;;
68010;SDS011;54794;48.348;7.878;2023-09-19T15:03:03;0.88;;;0.32;;
68010;SDS011;54794;48.348;7.878;2023-09-19T15:10:18;0.35;;;0.20;;
68010;SDS011;54794;48.348;7.878;2023-09-19T15:16:57;1.23;;;0.38;;
68010;SDS011;54794;48.348;7.878;2023-09-19T15:19:54;0.77;;;0.20;;
68010;SDS011;54794;48.348;7.878;2023-09-19T15:22:38;0.30;;;0.20;;
68010;SDS011;54794;48.348;7.878;2023-09-19T15:29:24;0.43;;;0.20;;
68010;SDS011;54794;48.348;7.878;2023-09-19T15:39:20;0.40;;;0.20;;
68010;SDS011;54794;48.348;7.878;2023-09-19T15:45:40;0.50;;;0.30;;
68010;SDS011;54794;48.348;7.878;2023-09-19T15:48:39;0.40;;;0.30;;
68010;SDS011;54794;48.348;7.878;2023-09-19T16:07:25;0.28;;;0.20;;
68010;SDS011;54794;48.348;7.878;2023-09-19T16:11:09;0.20;;;0.20;;
68010;SDS011;54794;48.348;7.878;2023-09-19T16:21:41;0.50;;;0.30;;
68010;SDS011;54794;48.348;7.878;2023-09-19T16:24:49;0.35;;;0.20;;
68010;SDS011;54794;48.348;7.878;2023-09-19T16:31:18;1.10;;;0.20;;
68010;SDS011;54794;48.348;7.878;2023-09-19T16:34:43;0.70;;;0.20;;
68010;SDS011;54794;48.348;7.878;2023-09-19T16:38:13;0.40;;;0.20;;
68010;SDS011;54794;48.348;7.878;2023-09-19T16:41:27;0.50;;;0.32;;
68010;SDS011;54794;48.348;7.878;2023-09-19T16:45:28;0.50;;;0.20;;
68010;SDS011;54794;48.348;7.878;2023-09-19T16:48:30;0.40;;;0.30;;
68010;SDS011;54794;48.348;7.878;2023-09-19T16:55:43;0.50;;;0.20;;
68010;SDS011;54794;48.348;7.878;2023-09-19T16:59:16;0.50;;;0.30;;
68010;SDS011;54794;48.348;7.878;2023-09-19T17:03:07;0.43;;;0.30;;
68010;SDS011;54794;48.348;7.878;2023-09-19T17:06:32;0.40;;;0.25;;
68010;SDS011;54794;48.348;7.878;2023-09-19T17:09:35;0.73;;;0.40;;
68010;SDS011;54794;48.348;7.878;2023-09-19T17:12:32;0.88;;;0.32;;
68010;SDS011;54794;48.348;7.878;2023-09-19T17:15:58;0.98;;;0.35;;
68010;SDS011;54794;48.348;7.878;2023-09-19T17:22:44;0.70;;;0.30;;
68010;SDS011;54794;48.348;7.878;2023-09-19T17:25:43;0.35;;;0.28;;
68010;SDS011;54794;48.348;7.878;2023-09-19T17:29:20;1.08;;;0.40;;
68010;SDS011;54794;48.348;7.878;2023-09-19T17:32:30;1.33;;;0.40;;
68010;SDS011;54794;48.348;7.878;2023-09-19T17:39:03;1.63;;;0.30;;
68010;SDS011;54794;48.348;7.878;2023-09-19T17:42:17;0.28;;;0.17;;
68010;SDS011;54794;48.348;7.878;2023-09-19T17:45:20;0.38;;;0.28;;
68010;SDS011;54794;48.348;7.878;2023-09-19T17:52:57;0.47;;;0.30;;
68010;SDS011;54794;48.348;7.878;2023-09-19T17:56:23;1.08;;;0.57;;
68010;SDS011;54794;48.348;7.878;2023-09-19T18:02:42;0.35;;;0.30;;
68010;SDS011;54794;48.348;7.878;2023-09-19T18:09:50;0.77;;;0.47;;
68010;SDS011;54794;48.348;7.878;2023-09-19T18:12:55;0.80;;;0.50;;
68010;SDS011;54794;48.348;7.878;2023-09-19T18:16:22;0.65;;;0.43;;
68010;SDS011;54794;48.348;7.878;2023-09-19T18:19:45;0.77;;;0.63;;
68010;SDS011;54794;48.348;7.878;2023-09-19T18:23:19;0.60;;;0.40;;
68010;SDS011;54794;48.348;7.878;2023-09-19T18:26:31;0.65;;;0.43;;
68010;SDS011;54794;48.348;7.878;2023-09-19T18:29:59;1.88;;;0.50;;
68010;SDS011;54794;48.348;7.878;2023-09-19T18:32:52;1.98;;;0.32;;
68010;SDS011;54794;48.348;7.878;2023-09-19T18:35:42;0.55;;;0.38;;
68010;SDS011;54794;48.348;7.878;2023-09-19T18:38:49;0.30;;;0.25;;
68010;SDS011;54794;48.348;7.878;2023-09-19T18:41:28;0.57;;;0.40;;
68010;SDS011;54794;48.348;7.878;2023-09-19T18:44:28;0.70;;;0.43;;
68010;SDS011;54794;48.348;7.878;2023-09-19T18:47:28;1.15;;;0.55;;
68010;SDS011;54794;48.348;7.878;2023-09-19T18:50:25;0.53;;;0.40;;
68010;SDS011;54794;48.348;7.878;2023-09-19T18:53:23;0.82;;;0.50;;
68010;SDS011;54794;48.348;7.878;2023-09-19T18:56:51;0.60;;;0.30;;
68010;SDS011;54794;48.348;7.878;2023-09-19T18:59:45;1.10;;;0.50;;
68010;SDS011;54794;48.348;7.878;2023-09-19T19:02:37;0.85;;;0.50;;
68010;SDS011;54794;48.348;7.878;2023-09-19T19:09:17;0.63;;;0.30;;
68010;SDS011;54794;48.348;7.878;2023-09-19T19:12:09;0.63;;;0.40;;
68010;SDS011;54794;48.348;7.878;2023-09-19T19:15:09;0.77;;;0.40;;
68010;SDS011;54794;48.348;7.878;2023-09-19T19:18:34;0.80;;;0.38;;
68010;SDS011;54794;48.348;7.878;2023-09-19T19:24:34;0.50;;;0.40;;
68010;SDS011;54794;48.348;7.878;2023-09-19T19:27:49;0.60;;;0.50;;
68010;SDS011;54794;48.348;7.878;2023-09-19T19:30:42;0.52;;;0.30;;
68010;SDS011;54794;48.348;7.878;2023-09-19T19:34:01;0.43;;;0.20;;
68010;SDS011;54794;48.348;7.878;2023-09-19T19:37:10;1.52;;;0.60;;
68010;SDS011;54794;48.348;7.878;2023-09-19T19:40:48;1.13;;;0.52;;
68010;SDS011;54794;48.348;7.878;2023-09-19T19:46:14;1.50;;;0.50;;
68010;SDS011;54794;48.348;7.878;2023-09-19T19:48:58;0.98;;;0.40;;
68010;SDS011;54794;48.348;7.878;2023-09-19T19:51:53;0.90;;;0.50;;
68010;SDS011;54794;48.348;7.878;2023-09-19T19:54:45;0.82;;;0.50;;
68010;SDS011;54794;48.348;7.878;2023-09-19T19:57:23;0.95;;;0.50;;
68010;SDS011;54794;48.348;7.878;2023-09-19T20:00:02;1.45;;;0.50;;
68010;SDS011;54794;48.348;7.878;2023-09-19T20:03:38;0.55;;;0.32;;
68010;SDS011;54794;48.348;7.878;2023-09-19T20:07:01;1.23;;;0.40;;
68010;SDS011;54794;48.348;7.878;2023-09-19T20:09:52;0.60;;;0.40;;
68010;SDS011;54794;48.348;7.878;2023-09-19T20:13:06;0.50;;;0.40;;
68010;SDS011;54794;48.348;7.878;2023-09-19T20:15:58;1.05;;;0.50;;
68010;SDS011;54794;48.348;7.878;2023-09-19T20:25:01;0.55;;;0.40;;
68010;SDS011;54794;48.348;7.878;2023-09-19T20:27:39;1.75;;;0.60;;
68010;SDS011;54794;48.348;7.878;2023-09-19T20:45:25;0.80;;;0.50;;
68010;SDS011;54794;48.348;7.878;2023-09-19T20:47:57;0.60;;;0.45;;
68010;SDS011;54794;48.348;7.878;2023-09-19T20:50:49;0.68;;;0.47;;
68010;SDS011;54794;48.348;7.878;2023-09-19T20:53:52;1.42;;;0.70;;
68010;SDS011;54794;48.348;7.878;2023-09-19T20:56:54;2.10;;;0.70;;
68010;SDS011;54794;48.348;7.878;2023-09-19T20:59:40;0.90;;;0.28;;
68010;SDS011;54794;48.348;7.878;2023-09-19T21:02:46;0.80;;;0.40;;
68010;SDS011;54794;48.348;7.878;2023-09-19T21:05:21;0.70;;;0.52;;
68010;SDS011;54794;48.348;7.878;2023-09-19T21:07:49;0.95;;;0.60;;
68010;SDS011;54794;48.348;7.878;2023-09-19T21:10:38;0.60;;;0.38;;
68010;SDS011;54794;48.348;7.878;2023-09-19T21:14:14;0.77;;;0.40;;
68010;SDS011;54794;48.348;7.878;2023-09-19T21:17:10;1.17;;;0.40;;
68010;SDS011;54794;48.348;7.878;2023-09-19T21:19:51;0.70;;;0.43;;
68010;SDS011;54794;48.348;7.878;2023-09-19T21:26:02;0.65;;;0.40;;
68010;SDS011;54794;48.348;7.878;2023-09-19T21:29:05;1.48;;;0.30;;
68010;SDS011;54794;48.348;7.878;2023-09-19T21:32:07;0.52;;;0.30;;
68010;SDS011;54794;48.348;7.878;2023-09-19T21:35:07;0.50;;;0.30;;
68010;SDS011;54794;48.348;7.878;2023-09-19T21:38:13;1.15;;;0.30;;
68010;SDS011;54794;48.348;7.878;2023-09-19T21:41:17;1.35;;;0.40;;
68010;SDS011;54794;48.348;7.878;2023-09-19T21:44:46;0.57;;;0.40;;
68010;SDS011;54794;48.348;7.878;2023-09-19T21:47:19;0.80;;;0.50;;
68010;SDS011;54794;48.348;7.878;2023-09-19T21:50:24;0.93;;;0.50;;
68010;SDS011;54794;48.348;7.878;2023-09-19T21:53:36;1.35;;;0.50;;
68010;SDS011;54794;48.348;7.878;2023-09-19T21:56:25;0.80;;;0.52;;
68010;SDS011;54794;48.348;7.878;2023-09-19T21:59:21;1.23;;;0.30;;
68010;SDS011;54794;48.348;7.878;2023-09-19T22:02:14;2.03;;;0.40;;
68010;SDS011;54794;48.348;7.878;2023-09-19T22:05:16;1.27;;;0.40;;
68010;SDS011;54794;48.348;7.878;2023-09-19T22:07:53;5.00;;;0.60;;
68010;SDS011;54794;48.348;7.878;2023-09-19T22:10:56;1.52;;;0.47;;
68010;SDS011;54794;48.348;7.878;2023-09-19T22:14:06;1.00;;;0.40;;
68010;SDS011;54794;48.348;7.878;2023-09-19T22:17:02;1.33;;;0.40;;
68010;SDS011;54794;48.348;7.878;2023-09-19T22:19:56;1.63;;;0.50;;
68010;SDS011;54794;48.348;7.878;2023-09-19T22:22:43;0.55;;;0.35;;
68010;SDS011;54794;48.348;7.878;2023-09-19T22:26:06;1.20;;;0.38;;
68010;SDS011;54794;48.348;7.878;2023-09-19T22:29:00;0.60;;;0.40;;
68010;SDS011;54794;48.348;7.878;2023-09-19T22:32:07;1.35;;;0.35;;
68010;SDS011;54794;48.348;7.878;2023-09-19T22:35:11;1.08;;;0.57;;
68010;SDS011;54794;48.348;7.878;2023-09-19T22:37:48;0.57;;;0.40;;
68010;SDS011;54794;48.348;7.878;2023-09-19T22:40:50;1.23;;;0.40;;
68010;SDS011;54794;48.348;7.878;2023-09-19T22:43:35;0.87;;;0.50;;
68010;SDS011;54794;48.348;7.878;2023-09-19T22:46:42;0.63;;;0.30;;
68010;SDS011;54794;48.348;7.878;2023-09-19T22:53:14;0.60;;;0.40;;
68010;SDS011;54794;48.348;7.878;2023-09-19T22:56:19;0.60;;;0.40;;
68010;SDS011;54794;48.348;7.878;2023-09-19T22:59:07;0.95;;;0.50;;
68010;SDS011;54794;48.348;7.878;2023-09-19T23:02:06;1.00;;;0.57;;
68010;SDS011;54794;48.348;7.878;2023-09-19T23:05:01;0.60;;;0.35;;
68010;SDS011;54794;48.348;7.878;2023-09-19T23:08:17;0.47;;;0.30;;
68010;SDS011;54794;48.348;7.878;2023-09-19T23:11:05;0.57;;;0.30;;
68010;SDS011;54794;48.348;7.878;2023-09-19T23:14:05;0.45;;;0.30;;
68010;SDS011;54794;48.348;7.878;2023-09-19T23:16:44;0.47;;;0.38;;
68010;SDS011;54794;48.348;7.878;2023-09-19T23:20:04;1.67;;;0.50;;
68010;SDS011;54794;48.348;7.878;2023-09-19T23:23:03;1.05;;;0.40;;
68010;SDS011;54794;48.348;7.878;2023-09-19T23:26:13;0.70;;;0.40;;
68010;SDS011;54794;48.348;7.878;2023-09-19T23:28:56;0.50;;;0.40;;
68010;SDS011;54794;48.348;7.878;2023-09-19T23:32:00;0.82;;;0.45;;
68010;SDS011;54794;48.348;7.878;2023-09-19T23:35:19;0.70;;;0.40;;
68010;SDS011;54794;48.348;7.878;2023-09-19T23:38:40;0.82;;;0.50;;
68010;SDS011;54794;48.348;7.878;2023-09-19T23:41:27;1.27;;;0.55;;
68010;SDS011;54794;48.348;7.878;2023-09-19T23:44:26;0.52;;;0.38;;
68010;SDS011;54794;48.348;7.878;2023-09-19T23:47:10;0.45;;;0.32;;
68010;SDS011;54794;48.348;7.878;2023-09-19T23:50:23;0.57;;;0.47;;
68010;SDS011;54794;48.348;7.878;2023-09-19T23:53:33;0.80;;;0.50;;
68010;SDS011;54794;48.348;7.878;2023-09-19T23:57:01;0.50;;;0.40;;
